sensor_id;sensor_type;location;lat;lon;timestamp;temperature;humidity
10278;DHT22;5184;51.376;7.148;2022-09-21T00:01:38;7.30;99.90
10278;DHT22;5184;51.376;7.148;2022-09-21T00:04:04;7.30;99.90
10278;DHT22;5184;51.376;7.148;2022-09-21T00:06:31;7.30;99.90
10278;DHT22;5184;51.376;7.148;2022-09-21T00:08:57;7.30;99.90
10278;DHT22;5184;51.376;7.148;2022-09-21T00:11:26;7.30;99.90
10278;DHT22;5184;51.376;7.148;2022-09-21T00:13:54;7.20;1.00
10278;DHT22;5184;51.376;7.148;2022-09-21T00:16:20;7.20;99.90
10278;DHT22;5184;51.376;7.148;2022-09-21T00:18:47;7.10;99.90
10278;DHT22;5184;51.376;7.148;2022-09-21T00:21:14;7.00;1.00
10278;DHT22;5184;51.376;7.148;2022-09-21T00:23:42;7.00;15.30
10278;DHT22;5184;51.376;7.148;2022-09-21T00:26:10;7.00;99.90
10278;DHT22;5184;51.376;7.148;2022-09-21T00:28:36;7.00;73.30
10278;DHT22;5184;51.376;7.148;2022-09-21T00:31:04;7.00;66.00
10278;DHT22;5184;51.376;7.148;2022-09-21T00:33:30;7.00;99.90
10278;DHT22;5184;51.376;7.148;2022-09-21T00:36:00;7.00;57.10
10278;DHT22;5184;51.376;7.148;2022-09-21T00:38:23;7.00;12.40
10278;DHT22;5184;51.376;7.148;2022-09-21T00:40:49;6.90;1.00
10278;DHT22;5184;51.376;7.148;2022-09-21T00:43:16;6.80;1.00
10278;DHT22;5184;51.376;7.148;2022-09-21T00:45:43;6.80;1.00
10278;DHT22;5184;51.376;7.148;2022-09-21T00:48:09;6.80;41.20
10278;DHT22;5184;51.376;7.148;2022-09-21T00:50:36;6.80;99.90
10278;DHT22;5184;51.376;7.148;2022-09-21T00:53:03;6.80;1.00
10278;DHT22;5184;51.376;7.148;2022-09-21T00:55:31;6.70;99.90
10278;DHT22;5184;51.376;7.148;2022-09-21T00:57:59;6.60;1.00
10278;DHT22;5184;51.376;7.148;2022-09-21T01:00:25;6.70;99.90
10278;DHT22;5184;51.376;7.148;2022-09-21T01:02:53;6.60;99.90
10278;DHT22;5184;51.376;7.148;2022-09-21T01:05:20;6.70;1.00
10278;DHT22;5184;51.376;7.148;2022-09-21T01:07:47;6.60;1.00
10278;DHT22;5184;51.376;7.148;2022-09-21T01:10:16;6.70;1.00
10278;DHT22;5184;51.376;7.148;2022-09-21T01:13:03;6.70;1.00
10278;DHT22;5184;51.376;7.148;2022-09-21T01:15:49;6.60;1.00
10278;DHT22;5184;51.376;7.148;2022-09-21T01:18:42;6.60;1.00
10278;DHT22;5184;51.376;7.148;2022-09-21T01:21:18;6.70;73.20
10278;DHT22;5184;51.376;7.148;2022-09-21T01:24:16;6.60;71.20
10278;DHT22;5184;51.376;7.148;2022-09-21T01:26:51;6.60;99.90
10278;DHT22;5184;51.376;7.148;2022-09-21T01:29:18;6.60;94.70
10278;DHT22;5184;51.376;7.148;2022-09-21T01:32:04;6.60;1.00
10278;DHT22;5184;51.376;7.148;2022-09-21T01:34:40;6.50;99.90
10278;DHT22;5184;51.376;7.148;2022-09-21T01:37:06;6.50;1.00
10278;DHT22;5184;51.376;7.148;2022-09-21T01:39:32;6.50;1.00
10278;DHT22;5184;51.376;7.148;2022-09-21T01:41:59;6.40;1.00
10278;DHT22;5184;51.376;7.148;2022-09-21T01:44:26;6.40;1.00
10278;DHT22;5184;51.376;7.148;2022-09-21T01:46:52;6.40;1.00
10278;DHT22;5184;51.376;7.148;2022-09-21T01:49:21;6.30;99.90
10278;DHT22;5184;51.376;7.148;2022-09-21T01:51:49;6.30;1.00
10278;DHT22;5184;51.376;7.148;2022-09-21T01:54:16;6.30;1.00
10278;DHT22;5184;51.376;7.148;2022-09-21T01:56:45;6.30;99.90
10278;DHT22;5184;51.376;7.148;2022-09-21T01:59:27;6.30;99.90
10278;DHT22;5184;51.376;7.148;2022-09-21T02:01:55;6.30;99.90
10278;DHT22;5184;51.376;7.148;2022-09-21T02:04:20;6.20;1.00
10278;DHT22;5184;51.376;7.148;2022-09-21T02:06:46;6.20;1.00
10278;DHT22;5184;51.376;7.148;2022-09-21T02:09:13;6.20;1.00
10278;DHT22;5184;51.376;7.148;2022-09-21T02:11:40;6.20;20.50
10278;DHT22;5184;51.376;7.148;2022-09-21T02:14:08;6.10;1.00
10278;DHT22;5184;51.376;7.148;2022-09-21T02:16:38;6.10;99.90
10278;DHT22;5184;51.376;7.148;2022-09-21T02:19:35;6.10;99.90
10278;DHT22;5184;51.376;7.148;2022-09-21T02:22:06;6.10;99.90
10278;DHT22;5184;51.376;7.148;2022-09-21T02:24:34;6.10;99.90
10278;DHT22;5184;51.376;7.148;2022-09-21T02:27:03;6.10;18.20
10278;DHT22;5184;51.376;7.148;2022-09-21T02:32:27;6.10;99.90
10278;DHT22;5184;51.376;7.148;2022-09-21T02:34:52;6.00;99.90
10278;DHT22;5184;51.376;7.148;2022-09-21T02:37:23;6.00;99.90
10278;DHT22;5184;51.376;7.148;2022-09-21T02:39:55;5.90;99.90
10278;DHT22;5184;51.376;7.148;2022-09-21T02:42:22;5.90;99.90
10278;DHT22;5184;51.376;7.148;2022-09-21T02:45:00;5.90;99.90
10278;DHT22;5184;51.376;7.148;2022-09-21T02:47:27;5.90;1.00
10278;DHT22;5184;51.376;7.148;2022-09-21T02:49:52;5.90;1.00
10278;DHT22;5184;51.376;7.148;2022-09-21T02:52:19;5.90;14.40
10278;DHT22;5184;51.376;7.148;2022-09-21T02:54:48;5.90;12.70
10278;DHT22;5184;51.376;7.148;2022-09-21T02:57:14;5.90;99.90
10278;DHT22;5184;51.376;7.148;2022-09-21T02:59:40;5.90;99.90
10278;DHT22;5184;51.376;7.148;2022-09-21T03:02:08;5.90;99.90
10278;DHT22;5184;51.376;7.148;2022-09-21T03:04:33;5.90;1.00
10278;DHT22;5184;51.376;7.148;2022-09-21T03:07:00;5.90;1.00
10278;DHT22;5184;51.376;7.148;2022-09-21T03:09:26;5.90;99.90
10278;DHT22;5184;51.376;7.148;2022-09-21T03:11:53;5.90;99.90
10278;DHT22;5184;51.376;7.148;2022-09-21T03:14:20;5.80;99.90
10278;DHT22;5184;51.376;7.148;2022-09-21T03:16:48;5.80;1.00
10278;DHT22;5184;51.376;7.148;2022-09-21T03:19:15;5.80;1.00
10278;DHT22;5184;51.376;7.148;2022-09-21T03:21:43;5.80;99.90
10278;DHT22;5184;51.376;7.148;2022-09-21T03:24:11;5.80;99.90
10278;DHT22;5184;51.376;7.148;2022-09-21T03:26:38;5.70;99.90
10278;DHT22;5184;51.376;7.148;2022-09-21T03:29:05;5.70;99.90
10278;DHT22;5184;51.376;7.148;2022-09-21T03:31:33;5.70;1.00
10278;DHT22;5184;51.376;7.148;2022-09-21T03:34:00;5.70;99.90
10278;DHT22;5184;51.376;7.148;2022-09-21T03:36:28;5.60;99.90
10278;DHT22;5184;51.376;7.148;2022-09-21T03:38:55;5.60;99.90
10278;DHT22;5184;51.376;7.148;2022-09-21T03:41:22;5.60;99.90
10278;DHT22;5184;51.376;7.148;2022-09-21T03:43:50;5.60;99.90
10278;DHT22;5184;51.376;7.148;2022-09-21T03:46:17;5.60;99.90
10278;DHT22;5184;51.376;7.148;2022-09-21T03:48:46;5.50;23.20
10278;DHT22;5184;51.376;7.148;2022-09-21T03:51:12;5.50;99.90
10278;DHT22;5184;51.376;7.148;2022-09-21T03:53:39;5.50;99.90
10278;DHT22;5184;51.376;7.148;2022-09-21T03:56:06;5.50;99.90
10278;DHT22;5184;51.376;7.148;2022-09-21T03:58:33;5.50;99.90
10278;DHT22;5184;51.376;7.148;2022-09-21T04:01:00;5.50;99.90
10278;DHT22;5184;51.376;7.148;2022-09-21T04:03:26;5.50;1.00
10278;DHT22;5184;51.376;7.148;2022-09-21T04:05:53;5.40;1.00
10278;DHT22;5184;51.376;7.148;2022-09-21T04:08:19;5.40;1.00
10278;DHT22;5184;51.376;7.148;2022-09-21T04:10:46;5.40;1.00
10278;DHT22;5184;51.376;7.148;2022-09-21T04:13:13;5.40;99.90
10278;DHT22;5184;51.376;7.148;2022-09-21T04:15:39;5.40;99.90
10278;DHT22;5184;51.376;7.148;2022-09-21T04:18:06;5.40;99.90
10278;DHT22;5184;51.376;7.148;2022-09-21T04:20:33;5.30;23.80
10278;DHT22;5184;51.376;7.148;2022-09-21T04:23:00;5.30;99.90
10278;DHT22;5184;51.376;7.148;2022-09-21T04:25:28;5.30;19.00
10278;DHT22;5184;51.376;7.148;2022-09-21T04:27:55;5.20;99.90
10278;DHT22;5184;51.376;7.148;2022-09-21T04:30:22;5.20;99.90
10278;DHT22;5184;51.376;7.148;2022-09-21T04:32:50;5.20;99.90
10278;DHT22;5184;51.376;7.148;2022-09-21T04:35:17;5.20;99.90
10278;DHT22;5184;51.376;7.148;2022-09-21T04:37:45;5.20;99.90
10278;DHT22;5184;51.376;7.148;2022-09-21T04:40:12;5.20;99.90
10278;DHT22;5184;51.376;7.148;2022-09-21T04:42:39;5.20;99.90
10278;DHT22;5184;51.376;7.148;2022-09-21T04:45:07;5.10;99.90
10278;DHT22;5184;51.376;7.148;2022-09-21T04:47:34;5.10;99.90
10278;DHT22;5184;51.376;7.148;2022-09-21T04:50:00;5.10;99.90
10278;DHT22;5184;51.376;7.148;2022-09-21T04:52:27;5.10;99.90
10278;DHT22;5184;51.376;7.148;2022-09-21T04:54:55;5.10;99.90
10278;DHT22;5184;51.376;7.148;2022-09-21T04:57:21;5.00;99.90
10278;DHT22;5184;51.376;7.148;2022-09-21T04:59:48;5.10;99.90
10278;DHT22;5184;51.376;7.148;2022-09-21T05:02:14;5.00;99.90
10278;DHT22;5184;51.376;7.148;2022-09-21T05:04:41;5.00;99.90
10278;DHT22;5184;51.376;7.148;2022-09-21T05:07:08;5.00;19.50
10278;DHT22;5184;51.376;7.148;2022-09-21T05:09:36;4.90;1.00
10278;DHT22;5184;51.376;7.148;2022-09-21T05:12:09;5.00;40.90
10278;DHT22;5184;51.376;7.148;2022-09-21T05:14:36;4.90;1.00
10278;DHT22;5184;51.376;7.148;2022-09-21T05:17:03;4.90;1.00
10278;DHT22;5184;51.376;7.148;2022-09-21T05:19:29;4.90;1.00
10278;DHT22;5184;51.376;7.148;2022-09-21T05:21:56;4.80;99.90
10278;DHT22;5184;51.376;7.148;2022-09-21T05:24:22;4.80;1.00
10278;DHT22;5184;51.376;7.148;2022-09-21T05:26:49;4.90;99.90
10278;DHT22;5184;51.376;7.148;2022-09-21T05:29:16;4.90;99.90
10278;DHT22;5184;51.376;7.148;2022-09-21T05:31:49;4.90;17.60
10278;DHT22;5184;51.376;7.148;2022-09-21T05:36:57;4.90;99.90
10278;DHT22;5184;51.376;7.148;2022-09-21T05:39:21;4.90;99.90
10278;DHT22;5184;51.376;7.148;2022-09-21T05:41:48;4.90;99.90
10278;DHT22;5184;51.376;7.148;2022-09-21T05:44:15;4.90;18.60
10278;DHT22;5184;51.376;7.148;2022-09-21T05:46:43;4.90;1.00
10278;DHT22;5184;51.376;7.148;2022-09-21T05:49:29;4.90;1.00
10278;DHT22;5184;51.376;7.148;2022-09-21T05:52:01;4.90;99.90
10278;DHT22;5184;51.376;7.148;2022-09-21T05:54:31;5.00;1.00
10278;DHT22;5184;51.376;7.148;2022-09-21T05:56:57;4.90;1.00
10278;DHT22;5184;51.376;7.148;2022-09-21T06:02:40;5.00;1.00
10278;DHT22;5184;51.376;7.148;2022-09-21T06:04:41;5.00;1.00
10278;DHT22;5184;51.376;7.148;2022-09-21T06:07:07;5.10;99.90
10278;DHT22;5184;51.376;7.148;2022-09-21T06:09:35;5.00;1.00
10278;DHT22;5184;51.376;7.148;2022-09-21T06:12:02;5.00;99.90
10278;DHT22;5184;51.376;7.148;2022-09-21T06:14:29;5.00;99.90
10278;DHT22;5184;51.376;7.148;2022-09-21T06:16:57;5.00;1.00
10278;DHT22;5184;51.376;7.148;2022-09-21T06:19:24;5.10;1.00
10278;DHT22;5184;51.376;7.148;2022-09-21T06:21:51;5.10;99.90
10278;DHT22;5184;51.376;7.148;2022-09-21T06:24:19;5.10;99.90
10278;DHT22;5184;51.376;7.148;2022-09-21T06:26:46;5.20;99.90
10278;DHT22;5184;51.376;7.148;2022-09-21T06:29:14;5.20;1.00
10278;DHT22;5184;51.376;7.148;2022-09-21T06:31:41;5.20;99.90
10278;DHT22;5184;51.376;7.148;2022-09-21T06:34:08;5.30;99.90
10278;DHT22;5184;51.376;7.148;2022-09-21T06:36:35;5.30;99.90
10278;DHT22;5184;51.376;7.148;2022-09-21T06:39:01;5.40;99.90
10278;DHT22;5184;51.376;7.148;2022-09-21T06:41:28;5.40;99.90
10278;DHT22;5184;51.376;7.148;2022-09-21T06:43:55;5.40;99.90
10278;DHT22;5184;51.376;7.148;2022-09-21T06:46:21;5.40;99.90
10278;DHT22;5184;51.376;7.148;2022-09-21T06:48:48;5.50;1.00
10278;DHT22;5184;51.376;7.148;2022-09-21T06:51:14;5.50;1.00
10278;DHT22;5184;51.376;7.148;2022-09-21T06:53:42;5.60;14.70
10278;DHT22;5184;51.376;7.148;2022-09-21T06:56:09;5.70;99.90
10278;DHT22;5184;51.376;7.148;2022-09-21T06:58:36;5.80;99.90
10278;DHT22;5184;51.376;7.148;2022-09-21T07:01:07;5.90;99.90
10278;DHT22;5184;51.376;7.148;2022-09-21T07:03:34;5.90;99.90
10278;DHT22;5184;51.376;7.148;2022-09-21T07:06:00;5.90;99.90
10278;DHT22;5184;51.376;7.148;2022-09-21T07:08:27;6.00;99.90
10278;DHT22;5184;51.376;7.148;2022-09-21T07:10:56;6.10;99.90
10278;DHT22;5184;51.376;7.148;2022-09-21T07:13:20;6.10;99.90
10278;DHT22;5184;51.376;7.148;2022-09-21T07:15:46;6.30;1.00
10278;DHT22;5184;51.376;7.148;2022-09-21T07:18:13;6.40;1.00
10278;DHT22;5184;51.376;7.148;2022-09-21T07:20:39;6.50;1.00
10278;DHT22;5184;51.376;7.148;2022-09-21T07:23:12;6.60;1.00
10278;DHT22;5184;51.376;7.148;2022-09-21T07:25:39;6.70;1.00
10278;DHT22;5184;51.376;7.148;2022-09-21T07:28:06;6.90;1.00
10278;DHT22;5184;51.376;7.148;2022-09-21T07:30:33;6.90;1.00
10278;DHT22;5184;51.376;7.148;2022-09-21T07:32:59;7.00;1.00
10278;DHT22;5184;51.376;7.148;2022-09-21T07:35:27;7.30;15.40
10278;DHT22;5184;51.376;7.148;2022-09-21T07:37:56;7.40;33.00
10278;DHT22;5184;51.376;7.148;2022-09-21T07:40:21;7.50;71.00
10278;DHT22;5184;51.376;7.148;2022-09-21T07:42:48;7.50;71.10
10278;DHT22;5184;51.376;7.148;2022-09-21T07:45:15;7.60;99.90
10278;DHT22;5184;51.376;7.148;2022-09-21T07:47:41;7.70;99.90
10278;DHT22;5184;51.376;7.148;2022-09-21T07:50:08;7.80;99.90
10278;DHT22;5184;51.376;7.148;2022-09-21T07:52:35;8.00;99.90
10278;DHT22;5184;51.376;7.148;2022-09-21T07:55:01;8.00;99.90
10278;DHT22;5184;51.376;7.148;2022-09-21T07:57:29;8.30;99.90
10278;DHT22;5184;51.376;7.148;2022-09-21T08:00:02;8.40;99.90
10278;DHT22;5184;51.376;7.148;2022-09-21T08:02:28;8.40;99.90
10278;DHT22;5184;51.376;7.148;2022-09-21T08:04:55;7.00;99.90
10278;DHT22;5184;51.376;7.148;2022-09-21T08:07:22;8.60;99.90
10278;DHT22;5184;51.376;7.148;2022-09-21T08:09:48;8.80;99.90
10278;DHT22;5184;51.376;7.148;2022-09-21T08:12:16;9.10;99.90
10278;DHT22;5184;51.376;7.148;2022-09-21T08:14:44;9.20;99.90
10278;DHT22;5184;51.376;7.148;2022-09-21T08:17:11;9.30;99.90
10278;DHT22;5184;51.376;7.148;2022-09-21T08:19:39;9.50;99.90
10278;DHT22;5184;51.376;7.148;2022-09-21T08:22:05;9.40;99.90
10278;DHT22;5184;51.376;7.148;2022-09-21T08:24:33;9.70;99.90
10278;DHT22;5184;51.376;7.148;2022-09-21T08:27:00;9.80;99.90
10278;DHT22;5184;51.376;7.148;2022-09-21T08:29:27;9.90;99.90
10278;DHT22;5184;51.376;7.148;2022-09-21T08:31:55;10.10;99.90
10278;DHT22;5184;51.376;7.148;2022-09-21T08:34:21;10.00;99.90
10278;DHT22;5184;51.376;7.148;2022-09-21T08:36:48;10.20;99.90
10278;DHT22;5184;51.376;7.148;2022-09-21T08:39:15;10.30;99.90
10278;DHT22;5184;51.376;7.148;2022-09-21T08:43:06;10.50;99.90
10278;DHT22;5184;51.376;7.148;2022-09-21T08:44:47;10.60;99.90
10278;DHT22;5184;51.376;7.148;2022-09-21T08:47:14;10.70;99.90
10278;DHT22;5184;51.376;7.148;2022-09-21T08:49:40;10.80;99.90
10278;DHT22;5184;51.376;7.148;2022-09-21T08:52:10;11.00;1.00
10278;DHT22;5184;51.376;7.148;2022-09-21T08:55:14;11.10;1.00
10278;DHT22;5184;51.376;7.148;2022-09-21T08:57:20;11.20;1.00
10278;DHT22;5184;51.376;7.148;2022-09-21T08:59:48;11.30;99.90
10278;DHT22;5184;51.376;7.148;2022-09-21T09:05:16;11.40;99.90
10278;DHT22;5184;51.376;7.148;2022-09-21T09:07:50;11.60;99.90
10278;DHT22;5184;51.376;7.148;2022-09-21T09:13:06;11.90;99.90
10278;DHT22;5184;51.376;7.148;2022-09-21T09:15:54;12.00;99.90
10278;DHT22;5184;51.376;7.148;2022-09-21T09:18:24;12.00;99.90
10278;DHT22;5184;51.376;7.148;2022-09-21T09:20:56;12.20;1.00
10278;DHT22;5184;51.376;7.148;2022-09-21T09:23:27;12.20;99.90
10278;DHT22;5184;51.376;7.148;2022-09-21T09:25:56;12.30;99.90
10278;DHT22;5184;51.376;7.148;2022-09-21T09:28:29;12.40;1.00
10278;DHT22;5184;51.376;7.148;2022-09-21T09:31:00;12.30;1.00
10278;DHT22;5184;51.376;7.148;2022-09-21T09:33:27;12.40;99.90
10278;DHT22;5184;51.376;7.148;2022-09-21T09:36:04;12.40;1.00
10278;DHT22;5184;51.376;7.148;2022-09-21T09:38:39;12.50;99.90
10278;DHT22;5184;51.376;7.148;2022-09-21T09:41:28;12.50;99.90
10278;DHT22;5184;51.376;7.148;2022-09-21T09:43:55;12.50;99.90
10278;DHT22;5184;51.376;7.148;2022-09-21T09:49:09;12.60;1.00
10278;DHT22;5184;51.376;7.148;2022-09-21T09:51:30;12.60;1.00
10278;DHT22;5184;51.376;7.148;2022-09-21T09:53:58;12.80;99.90
10278;DHT22;5184;51.376;7.148;2022-09-21T09:56:25;13.00;99.90
10278;DHT22;5184;51.376;7.148;2022-09-21T09:58:52;12.90;99.90
10278;DHT22;5184;51.376;7.148;2022-09-21T10:04:04;13.10;76.30
10278;DHT22;5184;51.376;7.148;2022-09-21T10:06:30;13.10;99.90
10278;DHT22;5184;51.376;7.148;2022-09-21T10:08:56;13.20;99.90
10278;DHT22;5184;51.376;7.148;2022-09-21T10:11:23;11.50;99.90
10278;DHT22;5184;51.376;7.148;2022-09-21T10:13:50;13.60;1.00
10278;DHT22;5184;51.376;7.148;2022-09-21T10:16:20;13.80;99.90
10278;DHT22;5184;51.376;7.148;2022-09-21T10:18:49;13.80;99.90
10278;DHT22;5184;51.376;7.148;2022-09-21T10:21:32;13.90;99.90
10278;DHT22;5184;51.376;7.148;2022-09-21T10:23:59;14.00;1.00
10278;DHT22;5184;51.376;7.148;2022-09-21T10:26:29;14.00;1.00
10278;DHT22;5184;51.376;7.148;2022-09-21T10:28:57;14.10;1.00
10278;DHT22;5184;51.376;7.148;2022-09-21T10:31:25;14.10;1.00
10278;DHT22;5184;51.376;7.148;2022-09-21T10:33:52;14.20;1.00
10278;DHT22;5184;51.376;7.148;2022-09-21T10:36:29;14.50;1.00
10278;DHT22;5184;51.376;7.148;2022-09-21T10:38:55;14.50;1.00
10278;DHT22;5184;51.376;7.148;2022-09-21T10:41:22;14.70;99.90
10278;DHT22;5184;51.376;7.148;2022-09-21T10:43:49;14.70;99.90
10278;DHT22;5184;51.376;7.148;2022-09-21T10:46:16;14.70;99.90
10278;DHT22;5184;51.376;7.148;2022-09-21T10:48:44;14.80;99.90
10278;DHT22;5184;51.376;7.148;2022-09-21T10:51:19;14.80;99.90
10278;DHT22;5184;51.376;7.148;2022-09-21T10:53:36;14.70;99.90
10278;DHT22;5184;51.376;7.148;2022-09-21T10:56:07;14.50;99.90
10278;DHT22;5184;51.376;7.148;2022-09-21T10:58:32;14.50;99.90
10278;DHT22;5184;51.376;7.148;2022-09-21T11:01:10;14.40;99.90
10278;DHT22;5184;51.376;7.148;2022-09-21T11:03:39;14.30;99.90
10278;DHT22;5184;51.376;7.148;2022-09-21T11:06:07;14.20;1.00
10278;DHT22;5184;51.376;7.148;2022-09-21T11:08:37;14.10;1.00
10278;DHT22;5184;51.376;7.148;2022-09-21T11:11:16;14.20;99.90
10278;DHT22;5184;51.376;7.148;2022-09-21T11:13:44;14.20;99.90
10278;DHT22;5184;51.376;7.148;2022-09-21T11:16:15;14.30;99.90
10278;DHT22;5184;51.376;7.148;2022-09-21T11:24:09;14.50;99.90
10278;DHT22;5184;51.376;7.148;2022-09-21T11:26:34;14.50;99.90
10278;DHT22;5184;51.376;7.148;2022-09-21T11:29:03;14.50;99.90
10278;DHT22;5184;51.376;7.148;2022-09-21T11:31:36;14.50;99.90
10278;DHT22;5184;51.376;7.148;2022-09-21T11:34:42;14.50;99.90
10278;DHT22;5184;51.376;7.148;2022-09-21T11:37:17;14.50;99.90
10278;DHT22;5184;51.376;7.148;2022-09-21T11:40:01;14.70;99.90
10278;DHT22;5184;51.376;7.148;2022-09-21T11:45:38;15.00;99.90
10278;DHT22;5184;51.376;7.148;2022-09-21T11:48:24;15.00;1.00
10278;DHT22;5184;51.376;7.148;2022-09-21T11:50:57;15.00;1.00
10278;DHT22;5184;51.376;7.148;2022-09-21T11:58:51;15.30;1.00
10278;DHT22;5184;51.376;7.148;2022-09-21T12:01:41;15.40;1.00
10278;DHT22;5184;51.376;7.148;2022-09-21T12:04:12;15.50;1.00
10278;DHT22;5184;51.376;7.148;2022-09-21T12:06:36;15.70;1.00
10278;DHT22;5184;51.376;7.148;2022-09-21T12:09:19;15.80;1.00
10278;DHT22;5184;51.376;7.148;2022-09-21T12:11:48;15.90;99.90
10278;DHT22;5184;51.376;7.148;2022-09-21T12:14:19;16.10;99.90
10278;DHT22;5184;51.376;7.148;2022-09-21T12:16:51;16.20;99.90
10278;DHT22;5184;51.376;7.148;2022-09-21T12:19:24;16.40;99.90
10278;DHT22;5184;51.376;7.148;2022-09-21T12:21:52;16.80;99.90
10278;DHT22;5184;51.376;7.148;2022-09-21T12:24:18;16.90;99.90
10278;DHT22;5184;51.376;7.148;2022-09-21T12:26:45;16.90;99.90
10278;DHT22;5184;51.376;7.148;2022-09-21T12:29:16;16.80;99.90
10278;DHT22;5184;51.376;7.148;2022-09-21T12:31:49;19.20;99.90
10278;DHT22;5184;51.376;7.148;2022-09-21T12:34:18;17.00;99.90
10278;DHT22;5184;51.376;7.148;2022-09-21T12:39:41;16.90;99.90
10278;DHT22;5184;51.376;7.148;2022-09-21T12:42:13;16.90;99.90
10278;DHT22;5184;51.376;7.148;2022-09-21T12:44:48;16.90;99.90
10278;DHT22;5184;51.376;7.148;2022-09-21T12:47:21;17.10;99.90
10278;DHT22;5184;51.376;7.148;2022-09-21T12:49:45;16.90;99.90
10278;DHT22;5184;51.376;7.148;2022-09-21T12:52:17;16.70;99.90
10278;DHT22;5184;51.376;7.148;2022-09-21T12:54:42;16.60;99.90
10278;DHT22;5184;51.376;7.148;2022-09-21T12:57:28;16.50;99.90
10278;DHT22;5184;51.376;7.148;2022-09-21T13:00:00;16.40;99.90
10278;DHT22;5184;51.376;7.148;2022-09-21T13:02:29;16.30;99.90
10278;DHT22;5184;51.376;7.148;2022-09-21T13:05:00;16.30;99.90
10278;DHT22;5184;51.376;7.148;2022-09-21T13:07:53;16.30;99.90
10278;DHT22;5184;51.376;7.148;2022-09-21T13:10:17;16.20;99.90
10278;DHT22;5184;51.376;7.148;2022-09-21T13:12:41;16.30;99.90
10278;DHT22;5184;51.376;7.148;2022-09-21T13:15:16;16.20;99.90
10278;DHT22;5184;51.376;7.148;2022-09-21T13:17:39;16.20;99.90
10278;DHT22;5184;51.376;7.148;2022-09-21T13:20:18;16.30;99.90
10278;DHT22;5184;51.376;7.148;2022-09-21T13:22:45;16.20;99.90
10278;DHT22;5184;51.376;7.148;2022-09-21T13:25:20;14.90;99.90
10278;DHT22;5184;51.376;7.148;2022-09-21T13:27:55;16.30;99.90
10278;DHT22;5184;51.376;7.148;2022-09-21T13:30:33;16.30;99.90
10278;DHT22;5184;51.376;7.148;2022-09-21T13:32:58;16.20;99.90
10278;DHT22;5184;51.376;7.148;2022-09-21T13:40:47;16.10;99.90
10278;DHT22;5184;51.376;7.148;2022-09-21T13:43:14;16.10;99.90
10278;DHT22;5184;51.376;7.148;2022-09-21T13:45:47;16.20;99.90
10278;DHT22;5184;51.376;7.148;2022-09-21T13:48:17;16.10;99.90
10278;DHT22;5184;51.376;7.148;2022-09-21T13:50:41;16.20;99.90
10278;DHT22;5184;51.376;7.148;2022-09-21T13:53:16;16.20;99.90
10278;DHT22;5184;51.376;7.148;2022-09-21T13:55:36;16.20;99.90
10278;DHT22;5184;51.376;7.148;2022-09-21T13:58:05;16.20;99.90
10278;DHT22;5184;51.376;7.148;2022-09-21T14:00:34;16.20;99.90
10278;DHT22;5184;51.376;7.148;2022-09-21T14:03:00;16.30;99.90
10278;DHT22;5184;51.376;7.148;2022-09-21T14:05:33;16.50;99.90
10278;DHT22;5184;51.376;7.148;2022-09-21T14:08:03;16.80;99.90
10278;DHT22;5184;51.376;7.148;2022-09-21T14:10:28;16.80;99.90
10278;DHT22;5184;51.376;7.148;2022-09-21T14:12:55;17.30;76.80
10278;DHT22;5184;51.376;7.148;2022-09-21T14:15:33;17.40;62.10
10278;DHT22;5184;51.376;7.148;2022-09-21T14:18:08;17.40;60.90
10278;DHT22;5184;51.376;7.148;2022-09-21T14:20:33;17.50;52.20
10278;DHT22;5184;51.376;7.148;2022-09-21T14:25:52;17.70;54.80
10278;DHT22;5184;51.376;7.148;2022-09-21T14:28:26;17.60;33.20
10278;DHT22;5184;51.376;7.148;2022-09-21T14:30:53;17.50;50.10
10278;DHT22;5184;51.376;7.148;2022-09-21T14:33:21;17.50;29.30
10278;DHT22;5184;51.376;7.148;2022-09-21T14:35:45;17.60;45.20
10278;DHT22;5184;51.376;7.148;2022-09-21T14:38:13;15.20;43.60
10278;DHT22;5184;51.376;7.148;2022-09-21T14:40:43;17.90;42.60
10278;DHT22;5184;51.376;7.148;2022-09-21T14:43:09;18.00;38.00
10278;DHT22;5184;51.376;7.148;2022-09-21T14:48:23;18.10;42.70
10278;DHT22;5184;51.376;7.148;2022-09-21T14:50:58;18.20;33.90
10278;DHT22;5184;51.376;7.148;2022-09-21T14:53:30;18.30;35.40
10278;DHT22;5184;51.376;7.148;2022-09-21T14:56:16;18.30;30.50
10278;DHT22;5184;51.376;7.148;2022-09-21T14:58:48;18.50;18.80
10278;DHT22;5184;51.376;7.148;2022-09-21T15:01:34;18.60;8.60
10278;DHT22;5184;51.376;7.148;2022-09-21T15:06:40;18.60;1.00
10278;DHT22;5184;51.376;7.148;2022-09-21T15:09:19;18.70;5.50
10278;DHT22;5184;51.376;7.148;2022-09-21T15:11:46;18.70;5.10
10278;DHT22;5184;51.376;7.148;2022-09-21T15:14:15;18.60;2.10
10278;DHT22;5184;51.376;7.148;2022-09-21T15:16:41;18.60;1.60
10278;DHT22;5184;51.376;7.148;2022-09-21T15:19:22;18.70;1.00
10278;DHT22;5184;51.376;7.148;2022-09-21T15:21:50;18.80;5.90
10278;DHT22;5184;51.376;7.148;2022-09-21T15:24:19;19.20;32.10
10278;DHT22;5184;51.376;7.148;2022-09-21T15:26:45;19.40;1.00
10278;DHT22;5184;51.376;7.148;2022-09-21T15:29:19;19.30;1.00
10278;DHT22;5184;51.376;7.148;2022-09-21T15:31:44;19.50;1.00
10278;DHT22;5184;51.376;7.148;2022-09-21T15:34:12;19.50;1.00
10278;DHT22;5184;51.376;7.148;2022-09-21T15:36:39;19.50;1.00
10278;DHT22;5184;51.376;7.148;2022-09-21T15:39:16;19.40;1.00
10278;DHT22;5184;51.376;7.148;2022-09-21T15:41:37;19.40;1.00
10278;DHT22;5184;51.376;7.148;2022-09-21T15:44:06;19.30;1.00
10278;DHT22;5184;51.376;7.148;2022-09-21T15:46:32;19.70;1.00
10278;DHT22;5184;51.376;7.148;2022-09-21T15:48:59;19.70;1.00
10278;DHT22;5184;51.376;7.148;2022-09-21T15:51:31;19.70;1.00
10278;DHT22;5184;51.376;7.148;2022-09-21T15:53:59;19.60;1.00
10278;DHT22;5184;51.376;7.148;2022-09-21T15:56:24;19.70;1.00
10278;DHT22;5184;51.376;7.148;2022-09-21T15:58:50;19.70;1.00
10278;DHT22;5184;51.376;7.148;2022-09-21T16:01:17;19.80;1.00
10278;DHT22;5184;51.376;7.148;2022-09-21T16:03:44;19.90;1.00
10278;DHT22;5184;51.376;7.148;2022-09-21T16:06:23;19.90;1.00
10278;DHT22;5184;51.376;7.148;2022-09-21T16:08:47;19.90;1.00
10278;DHT22;5184;51.376;7.148;2022-09-21T16:11:17;20.00;1.00
10278;DHT22;5184;51.376;7.148;2022-09-21T16:13:42;19.90;1.00
10278;DHT22;5184;51.376;7.148;2022-09-21T16:16:14;19.90;1.00
10278;DHT22;5184;51.376;7.148;2022-09-21T16:18:45;19.90;1.00
10278;DHT22;5184;51.376;7.148;2022-09-21T16:21:19;19.90;1.00
10278;DHT22;5184;51.376;7.148;2022-09-21T16:23:43;20.10;1.00
10278;DHT22;5184;51.376;7.148;2022-09-21T16:26:16;20.00;1.00
10278;DHT22;5184;51.376;7.148;2022-09-21T16:28:39;20.00;1.00
10278;DHT22;5184;51.376;7.148;2022-09-21T16:34:03;19.90;1.00
10278;DHT22;5184;51.376;7.148;2022-09-21T16:36:33;19.50;1.00
10278;DHT22;5184;51.376;7.148;2022-09-21T16:38:59;19.50;1.00
10278;DHT22;5184;51.376;7.148;2022-09-21T16:41:31;19.40;1.00
10278;DHT22;5184;51.376;7.148;2022-09-21T16:43:55;19.20;1.00
10278;DHT22;5184;51.376;7.148;2022-09-21T16:46:22;19.00;1.00
10278;DHT22;5184;51.376;7.148;2022-09-21T16:48:48;18.80;1.00
10278;DHT22;5184;51.376;7.148;2022-09-21T16:51:16;18.30;24.20
10278;DHT22;5184;51.376;7.148;2022-09-21T16:53:43;18.30;19.10
10278;DHT22;5184;51.376;7.148;2022-09-21T16:56:11;18.00;35.80
10278;DHT22;5184;51.376;7.148;2022-09-21T16:58:37;17.70;63.50
10278;DHT22;5184;51.376;7.148;2022-09-21T17:01:04;17.50;84.20
10278;DHT22;5184;51.376;7.148;2022-09-21T17:03:30;17.20;99.90
10278;DHT22;5184;51.376;7.148;2022-09-21T17:05:57;17.00;99.90